ruta-foces-pendon-pr-as-45__20200525_1026.gpx<?xml version="1.0" encoding="UTF-8" standalone="no" ?>
<gpx xmlns="http://www.topografix.com/GPX/1/1" xmlns:gpxtpx="http://www.garmin.com/xmlschemas/TrackPointExtension/v1" creator="Mapas de España v.1.1.0" version="1.1" xmlns:xsi="http://www.w3.org/2001/XMLSchema-instance" xsi:schemaLocation="http://www.topografix.com/GPX/1/1 http://www.topografix.com/GPX/1/1/gpx.xsd">
<metadata>
<name><![CDATA[ruta foces pendón pr as 45]]></name>
<link href="https://www.oruxmaps.com">
<text>Mapas de España</text>
</link>
<time>2020-05-25T08:26:14.764Z</time><bounds maxlat="43.3457431" maxlon="-5.4783848" minlat="43.3200866" minlon="-5.4902845"/>
</metadata>
<wpt lat="43.3457431" lon="-5.4837793">
<ele>243.18</ele>
<time>2020-05-25T08:26:15.722Z</time>
<name><![CDATA[0000026]]></name>
<sym>Waypoint</sym>
<type>Comienzo</type>
<extensions>
<om:oruxmapsextensions xmlns:om="http://www.oruxmaps.com/oruxmapsextensions/1/0">
<om:ext type="ICON" subtype="0">38</om:ext>
</om:oruxmapsextensions>
</extensions>
</wpt>
<wpt lat="43.3455551" lon="-5.4838451">
<ele>243.28</ele>
<time>2020-05-25T12:44:55.441Z</time>
<name><![CDATA[0000027]]></name>
<desc><![CDATA[<p><br /><h3>Nombre: Segmento: 1</h3><br />Hora Inicio: 10:26 25 may. 2020<br/>Hora Fin: 14:44 25 may. 2020<br/>Distancia recorrida: 8,3km (04:18)<br/>Tiempo en movimiento: 02:59<br/>Velocidad media: 1,94 km/h<br/>Vel. en Mov.: 2,78 km/h<br/>Velocidad Máxima: 5,29 km/h<br/>Altura Mínima: 231 m<br/>Altura Máxima: 639 m<br/>Velocidad Ascenso: 218,4 m/h<br/>Velocidad Descenso: -220,1 m/h<br/>Ganancia Altitud: 470 m<br/>Pérdida Altitud: -470 m<br/>Tiempo Ascenso: 02:09<br/>Tiempo Descenso: 02:08<br/></p>]]></desc>
<sym>Waypoint</sym>
<type>Final</type>
<extensions>
<om:oruxmapsextensions xmlns:om="http://www.oruxmaps.com/oruxmapsextensions/1/0">
<om:ext type="ICON" subtype="0">15</om:ext>
</om:oruxmapsextensions>
</extensions>
</wpt>
<trk>
<name><![CDATA[ruta foces pendón pr as 45]]></name>
<desc><![CDATA[<p>Hora Inicio: 10:26 25 may. 2020<br/>Hora Fin: 14:44 25 may. 2020<br/>Distancia recorrida: 8,3 km (04:18)<br/>Tiempo en movimiento: 02:59<br/>Velocidad media: 1,94 km/h<br/>Vel. en Mov.: 2,78 km/h<br/>Velocidad Máxima: 5,29 km/h<br/>Altura Mínima: 231 m<br/>Altura Máxima: 639 m<br/>Velocidad Ascenso: 218,7 m/h<br/>Velocidad Descenso: -208,9 m/h<br/>Ganancia Altitud: 457 m<br/>Pérdida Altitud: -457 m<br/>Tiempo Ascenso: 02:05<br/>Tiempo Descenso: 02:11<br/></p><hr align="center" width="480" style="height: 2px; width: 517px"/>]]></desc>
<type>Indefinido</type>
<extensions>
<om:oruxmapsextensions xmlns:om="http://www.oruxmaps.com/oruxmapsextensions/1/0">
<om:ext type="TYPE" subtype="0">0</om:ext>
<om:ext type="DIFFICULTY">0</om:ext>
</om:oruxmapsextensions>
</extensions>
<trkseg>
<trkpt lat="43.3457431" lon="-5.4837793">
<ele>243.18</ele>
<time>2020-05-25T08:26:16.000Z</time>
</trkpt>
<trkpt lat="43.3455663" lon="-5.4838744">
<ele>240.29</ele>
<time>2020-05-25T08:26:30.000Z</time>
</trkpt>
<trkpt lat="43.3453821" lon="-5.4838766">
<ele>237.62</ele>
<time>2020-05-25T08:26:46.000Z</time>
</trkpt>
<trkpt lat="43.3452482" lon="-5.4840475">
<ele>231.32</ele>
<time>2020-05-25T08:27:04.000Z</time>
</trkpt>
<trkpt lat="43.3451585" lon="-5.4842673">
<ele>233.95</ele>
<time>2020-05-25T08:27:22.000Z</time>
</trkpt>
<trkpt lat="43.3450563" lon="-5.4844751">
<ele>234.38</ele>
<time>2020-05-25T08:27:45.000Z</time>
</trkpt>
<trkpt lat="43.3449368" lon="-5.4846654">
<ele>233.29</ele>
<time>2020-05-25T08:28:06.000Z</time>
</trkpt>
<trkpt lat="43.3448269" lon="-5.4848630">
<ele>239.29</ele>
<time>2020-05-25T08:28:35.000Z</time>
</trkpt>
<trkpt lat="43.3446804" lon="-5.4850088">
<ele>240.59</ele>
<time>2020-05-25T08:28:53.000Z</time>
</trkpt>
<trkpt lat="43.3445249" lon="-5.4851408">
<ele>244.34</ele>
<time>2020-05-25T08:29:47.000Z</time>
</trkpt>
<trkpt lat="43.3443365" lon="-5.4851542">
<ele>244.29</ele>
<time>2020-05-25T08:30:04.000Z</time>
</trkpt>
<trkpt lat="43.3441495" lon="-5.4851776">
<ele>247.38</ele>
<time>2020-05-25T08:30:31.000Z</time>
</trkpt>
<trkpt lat="43.3439739" lon="-5.4852480">
<ele>246.38</ele>
<time>2020-05-25T08:30:48.000Z</time>
</trkpt>
<trkpt lat="43.3438708" lon="-5.4854598">
<ele>247.20</ele>
<time>2020-05-25T08:31:20.000Z</time>
</trkpt>
<trkpt lat="43.3439303" lon="-5.4857035">
<ele>252.27</ele>
<time>2020-05-25T08:31:40.000Z</time>
</trkpt>
<trkpt lat="43.3440258" lon="-5.4859287">
<ele>257.17</ele>
<time>2020-05-25T08:31:59.000Z</time>
</trkpt>
<trkpt lat="43.3441406" lon="-5.4861391">
<ele>263.26</ele>
<time>2020-05-25T08:32:45.000Z</time>
</trkpt>
<trkpt lat="43.3442684" lon="-5.4863136">
<ele>263.29</ele>
<time>2020-05-25T08:33:02.000Z</time>
</trkpt>
<trkpt lat="43.3443872" lon="-5.4865001">
<ele>266.29</ele>
<time>2020-05-25T08:34:25.000Z</time>
</trkpt>
<trkpt lat="43.3444383" lon="-5.4867435">
<ele>265.99</ele>
<time>2020-05-25T08:34:46.000Z</time>
</trkpt>
<trkpt lat="43.3443290" lon="-5.4869457">
<ele>271.29</ele>
<time>2020-05-25T08:35:56.000Z</time>
</trkpt>
<trkpt lat="43.3441962" lon="-5.4871129">
<ele>271.27</ele>
<time>2020-05-25T08:36:18.000Z</time>
</trkpt>
<trkpt lat="43.3441096" lon="-5.4873371">
<ele>271.50</ele>
<time>2020-05-25T08:36:41.000Z</time>
</trkpt>
<trkpt lat="43.3440391" lon="-5.4875676">
<ele>272.29</ele>
<time>2020-05-25T08:37:06.000Z</time>
</trkpt>
<trkpt lat="43.3439041" lon="-5.4877367">
<ele>273.29</ele>
<time>2020-05-25T08:37:34.000Z</time>
</trkpt>
<trkpt lat="43.3437793" lon="-5.4879211">
<ele>274.29</ele>
<time>2020-05-25T08:37:59.000Z</time>
</trkpt>
<trkpt lat="43.3436503" lon="-5.4881037">
<ele>275.30</ele>
<time>2020-05-25T08:38:20.000Z</time>
</trkpt>
<trkpt lat="43.3434973" lon="-5.4882602">
<ele>276.20</ele>
<time>2020-05-25T08:38:45.000Z</time>
</trkpt>
<trkpt lat="43.3434056" lon="-5.4884834">
<ele>280.29</ele>
<time>2020-05-25T08:39:24.000Z</time>
</trkpt>
<trkpt lat="43.3433255" lon="-5.4887138">
<ele>279.29</ele>
<time>2020-05-25T08:39:43.000Z</time>
</trkpt>
<trkpt lat="43.3432217" lon="-5.4889203">
<ele>279.29</ele>
<time>2020-05-25T08:39:59.000Z</time>
</trkpt>
<trkpt lat="43.3430972" lon="-5.4891052">
<ele>283.26</ele>
<time>2020-05-25T08:40:19.000Z</time>
</trkpt>
<trkpt lat="43.3431541" lon="-5.4888388">
<ele>292.29</ele>
<time>2020-05-25T08:40:57.000Z</time>
</trkpt>
<trkpt lat="43.3431085" lon="-5.4885912">
<ele>298.28</ele>
<time>2020-05-25T08:41:19.000Z</time>
</trkpt>
<trkpt lat="43.3430248" lon="-5.4883575">
<ele>300.32</ele>
<time>2020-05-25T08:41:41.000Z</time>
</trkpt>
<trkpt lat="43.3429309" lon="-5.4881402">
<ele>304.50</ele>
<time>2020-05-25T08:42:39.000Z</time>
</trkpt>
<trkpt lat="43.3428533" lon="-5.4879108">
<ele>303.28</ele>
<time>2020-05-25T08:43:01.000Z</time>
</trkpt>
<trkpt lat="43.3427079" lon="-5.4877632">
<ele>305.99</ele>
<time>2020-05-25T08:43:20.000Z</time>
</trkpt>
<trkpt lat="43.3425528" lon="-5.4876129">
<ele>307.29</ele>
<time>2020-05-25T08:43:41.000Z</time>
</trkpt>
<trkpt lat="43.3423994" lon="-5.4874754">
<ele>307.29</ele>
<time>2020-05-25T08:44:02.000Z</time>
</trkpt>
<trkpt lat="43.3422207" lon="-5.4874141">
<ele>307.20</ele>
<time>2020-05-25T08:44:25.000Z</time>
</trkpt>
<trkpt lat="43.3420531" lon="-5.4873190">
<ele>308.23</ele>
<time>2020-05-25T08:44:46.000Z</time>
</trkpt>
<trkpt lat="43.3418713" lon="-5.4872448">
<ele>310.20</ele>
<time>2020-05-25T08:45:01.000Z</time>
</trkpt>
<trkpt lat="43.3416825" lon="-5.4872302">
<ele>310.30</ele>
<time>2020-05-25T08:45:18.000Z</time>
</trkpt>
<trkpt lat="43.3415044" lon="-5.4873080">
<ele>310.99</ele>
<time>2020-05-25T08:45:37.000Z</time>
</trkpt>
<trkpt lat="43.3413424" lon="-5.4874500">
<ele>311.29</ele>
<time>2020-05-25T08:45:56.000Z</time>
</trkpt>
<trkpt lat="43.3411580" lon="-5.4875525">
<ele>313.99</ele>
<time>2020-05-25T08:46:54.000Z</time>
</trkpt>
<trkpt lat="43.3409805" lon="-5.4876390">
<ele>322.29</ele>
<time>2020-05-25T08:47:55.000Z</time>
</trkpt>
<trkpt lat="43.3407964" lon="-5.4876643">
<ele>325.99</ele>
<time>2020-05-25T08:48:15.000Z</time>
</trkpt>
<trkpt lat="43.3406182" lon="-5.4877044">
<ele>327.29</ele>
<time>2020-05-25T08:48:31.000Z</time>
</trkpt>
<trkpt lat="43.3404433" lon="-5.4877712">
<ele>328.28</ele>
<time>2020-05-25T08:48:49.000Z</time>
</trkpt>
<trkpt lat="43.3402667" lon="-5.4878659">
<ele>332.29</ele>
<time>2020-05-25T08:49:14.000Z</time>
</trkpt>
<trkpt lat="43.3401320" lon="-5.4880389">
<ele>334.38</ele>
<time>2020-05-25T08:49:42.000Z</time>
</trkpt>
<trkpt lat="43.3400800" lon="-5.4882763">
<ele>336.26</ele>
<time>2020-05-25T08:50:03.000Z</time>
</trkpt>
<trkpt lat="43.3399475" lon="-5.4884633">
<ele>333.60</ele>
<time>2020-05-25T08:50:20.000Z</time>
</trkpt>
<trkpt lat="43.3397838" lon="-5.4885777">
<ele>333.50</ele>
<time>2020-05-25T08:50:36.000Z</time>
</trkpt>
<trkpt lat="43.3396088" lon="-5.4886600">
<ele>334.31</ele>
<time>2020-05-25T08:50:55.000Z</time>
</trkpt>
<trkpt lat="43.3394681" lon="-5.4888140">
<ele>337.29</ele>
<time>2020-05-25T08:51:13.000Z</time>
</trkpt>
<trkpt lat="43.3393295" lon="-5.4889846">
<ele>339.29</ele>
<time>2020-05-25T08:51:36.000Z</time>
</trkpt>
<trkpt lat="43.3391841" lon="-5.4891327">
<ele>339.38</ele>
<time>2020-05-25T08:51:57.000Z</time>
</trkpt>
<trkpt lat="43.3390199" lon="-5.4892550">
<ele>339.26</ele>
<time>2020-05-25T08:52:20.000Z</time>
</trkpt>
<trkpt lat="43.3388923" lon="-5.4894365">
<ele>347.26</ele>
<time>2020-05-25T08:53:25.000Z</time>
</trkpt>
<trkpt lat="43.3387987" lon="-5.4896484">
<ele>349.27</ele>
<time>2020-05-25T08:53:55.000Z</time>
</trkpt>
<trkpt lat="43.3387350" lon="-5.4898889">
<ele>355.89</ele>
<time>2020-05-25T08:54:17.000Z</time>
</trkpt>
<trkpt lat="43.3386955" lon="-5.4901424">
<ele>366.35</ele>
<time>2020-05-25T08:55:33.000Z</time>
</trkpt>
<trkpt lat="43.3385470" lon="-5.4902845">
<ele>368.20</ele>
<time>2020-05-25T08:56:23.000Z</time>
</trkpt>
<trkpt lat="43.3383651" lon="-5.4902115">
<ele>371.29</ele>
<time>2020-05-25T08:56:47.000Z</time>
</trkpt>
<trkpt lat="43.3381929" lon="-5.4901181">
<ele>372.05</ele>
<time>2020-05-25T08:57:11.000Z</time>
</trkpt>
<trkpt lat="43.3380369" lon="-5.4899881">
<ele>377.29</ele>
<time>2020-05-25T08:57:36.000Z</time>
</trkpt>
<trkpt lat="43.3379048" lon="-5.4898142">
<ele>381.28</ele>
<time>2020-05-25T08:57:58.000Z</time>
</trkpt>
<trkpt lat="43.3377736" lon="-5.4896382">
<ele>383.29</ele>
<time>2020-05-25T08:58:19.000Z</time>
</trkpt>
<trkpt lat="43.3376121" lon="-5.4895276">
<ele>383.59</ele>
<time>2020-05-25T08:58:58.000Z</time>
</trkpt>
<trkpt lat="43.3374293" lon="-5.4895216">
<ele>379.28</ele>
<time>2020-05-25T08:59:57.000Z</time>
</trkpt>
<trkpt lat="43.3372435" lon="-5.4895261">
<ele>383.99</ele>
<time>2020-05-25T09:00:24.000Z</time>
</trkpt>
<trkpt lat="43.3370610" lon="-5.4895062">
<ele>388.99</ele>
<time>2020-05-25T09:02:04.000Z</time>
</trkpt>
<trkpt lat="43.3368791" lon="-5.4894616">
<ele>392.26</ele>
<time>2020-05-25T09:02:24.000Z</time>
</trkpt>
<trkpt lat="43.3366992" lon="-5.4894358">
<ele>394.29</ele>
<time>2020-05-25T09:02:44.000Z</time>
</trkpt>
<trkpt lat="43.3365200" lon="-5.4893865">
<ele>394.00</ele>
<time>2020-05-25T09:03:12.000Z</time>
</trkpt>
<trkpt lat="43.3363549" lon="-5.4894988">
<ele>396.29</ele>
<time>2020-05-25T09:04:06.000Z</time>
</trkpt>
<trkpt lat="43.3362173" lon="-5.4896660">
<ele>402.38</ele>
<time>2020-05-25T09:04:38.000Z</time>
</trkpt>
<trkpt lat="43.3360365" lon="-5.4896527">
<ele>415.26</ele>
<time>2020-05-25T09:06:21.000Z</time>
</trkpt>
<trkpt lat="43.3360168" lon="-5.4894065">
<ele>419.28</ele>
<time>2020-05-25T09:06:44.000Z</time>
</trkpt>
<trkpt lat="43.3360033" lon="-5.4891550">
<ele>421.29</ele>
<time>2020-05-25T09:07:12.000Z</time>
</trkpt>
<trkpt lat="43.3359738" lon="-5.4889038">
<ele>424.98</ele>
<time>2020-05-25T09:07:43.000Z</time>
</trkpt>
<trkpt lat="43.3359379" lon="-5.4886486">
<ele>427.99</ele>
<time>2020-05-25T09:08:11.000Z</time>
</trkpt>
<trkpt lat="43.3358939" lon="-5.4884020">
<ele>431.99</ele>
<time>2020-05-25T09:08:44.000Z</time>
</trkpt>
<trkpt lat="43.3360541" lon="-5.4882756">
<ele>432.32</ele>
<time>2020-05-25T09:09:24.000Z</time>
</trkpt>
<trkpt lat="43.3361851" lon="-5.4880906">
<ele>432.99</ele>
<time>2020-05-25T09:09:47.000Z</time>
</trkpt>
<trkpt lat="43.3362918" lon="-5.4878808">
<ele>437.20</ele>
<time>2020-05-25T09:10:12.000Z</time>
</trkpt>
<trkpt lat="43.3362467" lon="-5.4876323">
<ele>440.31</ele>
<time>2020-05-25T09:10:41.000Z</time>
</trkpt>
<trkpt lat="43.3361768" lon="-5.4873934">
<ele>444.26</ele>
<time>2020-05-25T09:11:10.000Z</time>
</trkpt>
<trkpt lat="43.3361330" lon="-5.4871481">
<ele>445.08</ele>
<time>2020-05-25T09:11:34.000Z</time>
</trkpt>
<trkpt lat="43.3361369" lon="-5.4868906">
<ele>448.99</ele>
<time>2020-05-25T09:12:03.000Z</time>
</trkpt>
<trkpt lat="43.3360263" lon="-5.4870857">
<ele>453.29</ele>
<time>2020-05-25T09:12:58.000Z</time>
</trkpt>
<trkpt lat="43.3359007" lon="-5.4872652">
<ele>454.32</ele>
<time>2020-05-25T09:13:24.000Z</time>
</trkpt>
<trkpt lat="43.3358436" lon="-5.4870241">
<ele>459.29</ele>
<time>2020-05-25T09:14:05.000Z</time>
</trkpt>
<trkpt lat="43.3357846" lon="-5.4867814">
<ele>464.26</ele>
<time>2020-05-25T09:14:41.000Z</time>
</trkpt>
<trkpt lat="43.3358150" lon="-5.4865275">
<ele>465.29</ele>
<time>2020-05-25T09:15:09.000Z</time>
</trkpt>
<trkpt lat="43.3358968" lon="-5.4862993">
<ele>467.29</ele>
<time>2020-05-25T09:15:38.000Z</time>
</trkpt>
<trkpt lat="43.3359673" lon="-5.4860629">
<ele>469.29</ele>
<time>2020-05-25T09:16:05.000Z</time>
</trkpt>
<trkpt lat="43.3359995" lon="-5.4858074">
<ele>471.29</ele>
<time>2020-05-25T09:16:38.000Z</time>
</trkpt>
<trkpt lat="43.3360157" lon="-5.4855564">
<ele>478.29</ele>
<time>2020-05-25T09:17:21.000Z</time>
</trkpt>
<trkpt lat="43.3359082" lon="-5.4853529">
<ele>480.29</ele>
<time>2020-05-25T09:17:39.000Z</time>
</trkpt>
<trkpt lat="43.3358632" lon="-5.4851096">
<ele>479.29</ele>
<time>2020-05-25T09:17:57.000Z</time>
</trkpt>
<trkpt lat="43.3358214" lon="-5.4848659">
<ele>480.29</ele>
<time>2020-05-25T09:18:25.000Z</time>
</trkpt>
<trkpt lat="43.3357481" lon="-5.4846356">
<ele>478.29</ele>
<time>2020-05-25T09:18:43.000Z</time>
</trkpt>
<trkpt lat="43.3356178" lon="-5.4844553">
<ele>475.38</ele>
<time>2020-05-25T09:19:07.000Z</time>
</trkpt>
<trkpt lat="43.3354933" lon="-5.4842752">
<ele>476.90</ele>
<time>2020-05-25T09:19:34.000Z</time>
</trkpt>
<trkpt lat="43.3353826" lon="-5.4840685">
<ele>473.30</ele>
<time>2020-05-25T09:19:58.000Z</time>
</trkpt>
<trkpt lat="43.3352146" lon="-5.4839700">
<ele>468.30</ele>
<time>2020-05-25T09:20:19.000Z</time>
</trkpt>
<trkpt lat="43.3350344" lon="-5.4839802">
<ele>467.29</ele>
<time>2020-05-25T09:20:46.000Z</time>
</trkpt>
<trkpt lat="43.3348573" lon="-5.4839364">
<ele>463.02</ele>
<time>2020-05-25T09:21:00.000Z</time>
</trkpt>
<trkpt lat="43.3346835" lon="-5.4838439">
<ele>463.20</ele>
<time>2020-05-25T09:21:20.000Z</time>
</trkpt>
<trkpt lat="43.3345113" lon="-5.4837531">
<ele>464.38</ele>
<time>2020-05-25T09:21:47.000Z</time>
</trkpt>
<trkpt lat="43.3343280" lon="-5.4836916">
<ele>467.29</ele>
<time>2020-05-25T09:22:29.000Z</time>
</trkpt>
<trkpt lat="43.3341496" lon="-5.4837352">
<ele>471.29</ele>
<time>2020-05-25T09:23:04.000Z</time>
</trkpt>
<trkpt lat="43.3339789" lon="-5.4838420">
<ele>471.99</ele>
<time>2020-05-25T09:23:34.000Z</time>
</trkpt>
<trkpt lat="43.3338070" lon="-5.4839274">
<ele>470.29</ele>
<time>2020-05-25T09:23:56.000Z</time>
</trkpt>
<trkpt lat="43.3336216" lon="-5.4839640">
<ele>471.29</ele>
<time>2020-05-25T09:24:19.000Z</time>
</trkpt>
<trkpt lat="43.3334378" lon="-5.4839977">
<ele>474.28</ele>
<time>2020-05-25T09:24:41.000Z</time>
</trkpt>
<trkpt lat="43.3332583" lon="-5.4839700">
<ele>476.28</ele>
<time>2020-05-25T09:25:03.000Z</time>
</trkpt>
<trkpt lat="43.3330726" lon="-5.4840016">
<ele>485.20</ele>
<time>2020-05-25T09:34:36.000Z</time>
</trkpt>
<trkpt lat="43.3328892" lon="-5.4839776">
<ele>485.29</ele>
<time>2020-05-25T09:35:05.000Z</time>
</trkpt>
<trkpt lat="43.3327101" lon="-5.4840282">
<ele>487.29</ele>
<time>2020-05-25T09:35:32.000Z</time>
</trkpt>
<trkpt lat="43.3326336" lon="-5.4842548">
<ele>489.29</ele>
<time>2020-05-25T09:35:57.000Z</time>
</trkpt>
<trkpt lat="43.3326958" lon="-5.4844956">
<ele>491.29</ele>
<time>2020-05-25T09:36:15.000Z</time>
</trkpt>
<trkpt lat="43.3327276" lon="-5.4847440">
<ele>494.29</ele>
<time>2020-05-25T09:36:37.000Z</time>
</trkpt>
<trkpt lat="43.3327917" lon="-5.4849875">
<ele>498.20</ele>
<time>2020-05-25T09:38:04.000Z</time>
</trkpt>
<trkpt lat="43.3327862" lon="-5.4852391">
<ele>502.99</ele>
<time>2020-05-25T09:38:26.000Z</time>
</trkpt>
<trkpt lat="43.3327962" lon="-5.4854875">
<ele>507.59</ele>
<time>2020-05-25T09:38:53.000Z</time>
</trkpt>
<trkpt lat="43.3326481" lon="-5.4856468">
<ele>505.38</ele>
<time>2020-05-25T09:39:14.000Z</time>
</trkpt>
<trkpt lat="43.3324822" lon="-5.4857442">
<ele>503.29</ele>
<time>2020-05-25T09:39:45.000Z</time>
</trkpt>
<trkpt lat="43.3323111" lon="-5.4858488">
<ele>504.21</ele>
<time>2020-05-25T09:40:17.000Z</time>
</trkpt>
<trkpt lat="43.3321588" lon="-5.4859840">
<ele>507.29</ele>
<time>2020-05-25T09:40:59.000Z</time>
</trkpt>
<trkpt lat="43.3320086" lon="-5.4861268">
<ele>519.17</ele>
<time>2020-05-25T09:41:39.000Z</time>
</trkpt>
<trkpt lat="43.3319130" lon="-5.4859138">
<ele>520.30</ele>
<time>2020-05-25T09:42:23.000Z</time>
</trkpt>
<trkpt lat="43.3318671" lon="-5.4856658">
<ele>526.90</ele>
<time>2020-05-25T09:43:05.000Z</time>
</trkpt>
<trkpt lat="43.3317281" lon="-5.4858278">
<ele>526.29</ele>
<time>2020-05-25T09:43:29.000Z</time>
</trkpt>
<trkpt lat="43.3316279" lon="-5.4860382">
<ele>528.29</ele>
<time>2020-05-25T09:43:51.000Z</time>
</trkpt>
<trkpt lat="43.3315199" lon="-5.4862389">
<ele>532.28</ele>
<time>2020-05-25T09:44:18.000Z</time>
</trkpt>
<trkpt lat="43.3313624" lon="-5.4861087">
<ele>539.99</ele>
<time>2020-05-25T09:45:41.000Z</time>
</trkpt>
<trkpt lat="43.3312645" lon="-5.4858985">
<ele>540.99</ele>
<time>2020-05-25T09:46:10.000Z</time>
</trkpt>
<trkpt lat="43.3311518" lon="-5.4857022">
<ele>546.49</ele>
<time>2020-05-25T09:46:36.000Z</time>
</trkpt>
<trkpt lat="43.3311622" lon="-5.4854543">
<ele>549.59</ele>
<time>2020-05-25T09:47:00.000Z</time>
</trkpt>
<trkpt lat="43.3311337" lon="-5.4852086">
<ele>551.29</ele>
<time>2020-05-25T09:47:22.000Z</time>
</trkpt>
<trkpt lat="43.3310161" lon="-5.4850101">
<ele>552.31</ele>
<time>2020-05-25T09:47:44.000Z</time>
</trkpt>
<trkpt lat="43.3308625" lon="-5.4848703">
<ele>554.29</ele>
<time>2020-05-25T09:48:04.000Z</time>
</trkpt>
<trkpt lat="43.3307427" lon="-5.4846802">
<ele>559.20</ele>
<time>2020-05-25T09:48:27.000Z</time>
</trkpt>
<trkpt lat="43.3306196" lon="-5.4844793">
<ele>560.28</ele>
<time>2020-05-25T09:48:45.000Z</time>
</trkpt>
<trkpt lat="43.3305649" lon="-5.4842403">
<ele>562.29</ele>
<time>2020-05-25T09:51:41.000Z</time>
</trkpt>
<trkpt lat="43.3304580" lon="-5.4840313">
<ele>564.56</ele>
<time>2020-05-25T09:52:19.000Z</time>
</trkpt>
<trkpt lat="43.3302862" lon="-5.4839139">
<ele>564.29</ele>
<time>2020-05-25T09:53:13.000Z</time>
</trkpt>
<trkpt lat="43.3300956" lon="-5.4839105">
<ele>564.29</ele>
<time>2020-05-25T09:53:42.000Z</time>
</trkpt>
<trkpt lat="43.3299140" lon="-5.4839500">
<ele>565.99</ele>
<time>2020-05-25T09:54:08.000Z</time>
</trkpt>
<trkpt lat="43.3297545" lon="-5.4840758">
<ele>570.87</ele>
<time>2020-05-25T09:54:47.000Z</time>
</trkpt>
<trkpt lat="43.3295770" lon="-5.4841492">
<ele>578.22</ele>
<time>2020-05-25T09:55:15.000Z</time>
</trkpt>
<trkpt lat="43.3293894" lon="-5.4841460">
<ele>577.29</ele>
<time>2020-05-25T09:55:47.000Z</time>
</trkpt>
<trkpt lat="43.3292152" lon="-5.4840824">
<ele>580.28</ele>
<time>2020-05-25T09:56:10.000Z</time>
</trkpt>
<trkpt lat="43.3290556" lon="-5.4839604">
<ele>583.21</ele>
<time>2020-05-25T09:56:29.000Z</time>
</trkpt>
<trkpt lat="43.3288749" lon="-5.4838773">
<ele>585.99</ele>
<time>2020-05-25T09:56:47.000Z</time>
</trkpt>
<trkpt lat="43.3287191" lon="-5.4837295">
<ele>588.29</ele>
<time>2020-05-25T09:57:02.000Z</time>
</trkpt>
<trkpt lat="43.3285584" lon="-5.4836037">
<ele>592.59</ele>
<time>2020-05-25T09:57:41.000Z</time>
</trkpt>
<trkpt lat="43.3284300" lon="-5.4834188">
<ele>593.02</ele>
<time>2020-05-25T09:57:58.000Z</time>
</trkpt>
<trkpt lat="43.3282569" lon="-5.4833446">
<ele>591.59</ele>
<time>2020-05-25T09:58:20.000Z</time>
</trkpt>
<trkpt lat="43.3280762" lon="-5.4833386">
<ele>589.32</ele>
<time>2020-05-25T09:58:40.000Z</time>
</trkpt>
<trkpt lat="43.3279090" lon="-5.4834563">
<ele>589.29</ele>
<time>2020-05-25T09:59:54.000Z</time>
</trkpt>
<trkpt lat="43.3277269" lon="-5.4834383">
<ele>587.27</ele>
<time>2020-05-25T10:00:27.000Z</time>
</trkpt>
<trkpt lat="43.3275554" lon="-5.4833262">
<ele>588.30</ele>
<time>2020-05-25T10:01:00.000Z</time>
</trkpt>
<trkpt lat="43.3273752" lon="-5.4832639">
<ele>586.29</ele>
<time>2020-05-25T10:01:39.000Z</time>
</trkpt>
<trkpt lat="43.3271937" lon="-5.4832139">
<ele>589.59</ele>
<time>2020-05-25T10:02:58.000Z</time>
</trkpt>
<trkpt lat="43.3270330" lon="-5.4830891">
<ele>588.36</ele>
<time>2020-05-25T10:03:16.000Z</time>
</trkpt>
<trkpt lat="43.3268498" lon="-5.4831341">
<ele>587.29</ele>
<time>2020-05-25T10:03:37.000Z</time>
</trkpt>
<trkpt lat="43.3266573" lon="-5.4831396">
<ele>587.99</ele>
<time>2020-05-25T10:03:54.000Z</time>
</trkpt>
<trkpt lat="43.3264939" lon="-5.4830245">
<ele>592.98</ele>
<time>2020-05-25T10:04:19.000Z</time>
</trkpt>
<trkpt lat="43.3263290" lon="-5.4829086">
<ele>598.19</ele>
<time>2020-05-25T10:04:37.000Z</time>
</trkpt>
<trkpt lat="43.3261471" lon="-5.4829334">
<ele>600.29</ele>
<time>2020-05-25T10:04:55.000Z</time>
</trkpt>
<trkpt lat="43.3259747" lon="-5.4830262">
<ele>600.20</ele>
<time>2020-05-25T10:05:13.000Z</time>
</trkpt>
<trkpt lat="43.3258113" lon="-5.4831451">
<ele>601.26</ele>
<time>2020-05-25T10:05:33.000Z</time>
</trkpt>
<trkpt lat="43.3256376" lon="-5.4832748">
<ele>604.29</ele>
<time>2020-05-25T10:05:59.000Z</time>
</trkpt>
<trkpt lat="43.3254927" lon="-5.4834356">
<ele>610.96</ele>
<time>2020-05-25T10:06:21.000Z</time>
</trkpt>
<trkpt lat="43.3253966" lon="-5.4836448">
<ele>616.38</ele>
<time>2020-05-25T10:09:36.000Z</time>
</trkpt>
<trkpt lat="43.3252369" lon="-5.4837700">
<ele>615.29</ele>
<time>2020-05-25T10:10:10.000Z</time>
</trkpt>
<trkpt lat="43.3250560" lon="-5.4838011">
<ele>614.59</ele>
<time>2020-05-25T10:10:36.000Z</time>
</trkpt>
<trkpt lat="43.3248829" lon="-5.4837142">
<ele>612.31</ele>
<time>2020-05-25T10:11:05.000Z</time>
</trkpt>
<trkpt lat="43.3247262" lon="-5.4835782">
<ele>618.30</ele>
<time>2020-05-25T10:11:57.000Z</time>
</trkpt>
<trkpt lat="43.3245435" lon="-5.4836097">
<ele>616.29</ele>
<time>2020-05-25T10:12:18.000Z</time>
</trkpt>
<trkpt lat="43.3244112" lon="-5.4834364">
<ele>618.99</ele>
<time>2020-05-25T10:12:37.000Z</time>
</trkpt>
<trkpt lat="43.3242739" lon="-5.4832696">
<ele>616.29</ele>
<time>2020-05-25T10:13:51.000Z</time>
</trkpt>
<trkpt lat="43.3241521" lon="-5.4830738">
<ele>621.96</ele>
<time>2020-05-25T10:14:18.000Z</time>
</trkpt>
<trkpt lat="43.3240227" lon="-5.4828981">
<ele>623.99</ele>
<time>2020-05-25T10:14:52.000Z</time>
</trkpt>
<trkpt lat="43.3238444" lon="-5.4828581">
<ele>632.20</ele>
<time>2020-05-25T10:15:31.000Z</time>
</trkpt>
<trkpt lat="43.3237447" lon="-5.4826472">
<ele>639.69</ele>
<time>2020-05-25T10:16:31.000Z</time>
</trkpt>
<trkpt lat="43.3236608" lon="-5.4824219">
<ele>637.59</ele>
<time>2020-05-25T10:17:34.000Z</time>
</trkpt>
<trkpt lat="43.3235624" lon="-5.4826332">
<ele>633.50</ele>
<time>2020-05-25T10:18:56.000Z</time>
</trkpt>
<trkpt lat="43.3234101" lon="-5.4827786">
<ele>634.40</ele>
<time>2020-05-25T10:19:25.000Z</time>
</trkpt>
<trkpt lat="43.3232814" lon="-5.4829611">
<ele>631.29</ele>
<time>2020-05-25T10:20:37.000Z</time>
</trkpt>
<trkpt lat="43.3230983" lon="-5.4829681">
<ele>628.29</ele>
<time>2020-05-25T10:20:57.000Z</time>
</trkpt>
<trkpt lat="43.3229152" lon="-5.4829991">
<ele>625.25</ele>
<time>2020-05-25T10:21:26.000Z</time>
</trkpt>
<trkpt lat="43.3227341" lon="-5.4830622">
<ele>629.50</ele>
<time>2020-05-25T10:22:01.000Z</time>
</trkpt>
<trkpt lat="43.3225530" lon="-5.4830247">
<ele>625.38</ele>
<time>2020-05-25T10:22:28.000Z</time>
</trkpt>
<trkpt lat="43.3223835" lon="-5.4829334">
<ele>622.30</ele>
<time>2020-05-25T10:23:10.000Z</time>
</trkpt>
<trkpt lat="43.3222079" lon="-5.4829896">
<ele>613.27</ele>
<time>2020-05-25T10:24:49.000Z</time>
</trkpt>
<trkpt lat="43.3223731" lon="-5.4828687">
<ele>609.32</ele>
<time>2020-05-25T10:25:57.000Z</time>
</trkpt>
<trkpt lat="43.3225592" lon="-5.4828297">
<ele>605.38</ele>
<time>2020-05-25T10:26:41.000Z</time>
</trkpt>
<trkpt lat="43.3227086" lon="-5.4826760">
<ele>601.38</ele>
<time>2020-05-25T10:27:12.000Z</time>
</trkpt>
<trkpt lat="43.3228033" lon="-5.4824577">
<ele>599.50</ele>
<time>2020-05-25T10:27:44.000Z</time>
</trkpt>
<trkpt lat="43.3228115" lon="-5.4822004">
<ele>598.29</ele>
<time>2020-05-25T10:28:15.000Z</time>
</trkpt>
<trkpt lat="43.3227483" lon="-5.4819667">
<ele>592.60</ele>
<time>2020-05-25T10:29:15.000Z</time>
</trkpt>
<trkpt lat="43.3226645" lon="-5.4821859">
<ele>590.29</ele>
<time>2020-05-25T10:29:56.000Z</time>
</trkpt>
<trkpt lat="43.3224962" lon="-5.4822847">
<ele>586.29</ele>
<time>2020-05-25T10:30:48.000Z</time>
</trkpt>
<trkpt lat="43.3223337" lon="-5.4823991">
<ele>579.59</ele>
<time>2020-05-25T10:32:15.000Z</time>
</trkpt>
<trkpt lat="43.3223883" lon="-5.4821558">
<ele>577.37</ele>
<time>2020-05-25T10:32:59.000Z</time>
</trkpt>
<trkpt lat="43.3224476" lon="-5.4819215">
<ele>575.29</ele>
<time>2020-05-25T10:33:30.000Z</time>
</trkpt>
<trkpt lat="43.3222685" lon="-5.4819565">
<ele>562.56</ele>
<time>2020-05-25T10:35:11.000Z</time>
</trkpt>
<trkpt lat="43.3220890" lon="-5.4819248">
<ele>558.35</ele>
<time>2020-05-25T10:35:34.000Z</time>
</trkpt>
<trkpt lat="43.3219056" lon="-5.4819664">
<ele>560.32</ele>
<time>2020-05-25T10:36:05.000Z</time>
</trkpt>
<trkpt lat="43.3217321" lon="-5.4820569">
<ele>550.29</ele>
<time>2020-05-25T10:37:40.000Z</time>
</trkpt>
<trkpt lat="43.3215563" lon="-5.4819943">
<ele>546.29</ele>
<time>2020-05-25T10:38:04.000Z</time>
</trkpt>
<trkpt lat="43.3213629" lon="-5.4819771">
<ele>546.29</ele>
<time>2020-05-25T10:38:27.000Z</time>
</trkpt>
<trkpt lat="43.3211949" lon="-5.4820725">
<ele>541.39</ele>
<time>2020-05-25T10:38:43.000Z</time>
</trkpt>
<trkpt lat="43.3213735" lon="-5.4819879">
<ele>535.59</ele>
<time>2020-05-25T10:41:17.000Z</time>
</trkpt>
<trkpt lat="43.3215446" lon="-5.4818756">
<ele>535.29</ele>
<time>2020-05-25T10:41:40.000Z</time>
</trkpt>
<trkpt lat="43.3216831" lon="-5.4817120">
<ele>532.91</ele>
<time>2020-05-25T10:42:06.000Z</time>
</trkpt>
<trkpt lat="43.3218398" lon="-5.4815847">
<ele>534.29</ele>
<time>2020-05-25T10:42:32.000Z</time>
</trkpt>
<trkpt lat="43.3219418" lon="-5.4813751">
<ele>532.29</ele>
<time>2020-05-25T10:43:08.000Z</time>
</trkpt>
<trkpt lat="43.3219755" lon="-5.4811319">
<ele>531.38</ele>
<time>2020-05-25T10:44:12.000Z</time>
</trkpt>
<trkpt lat="43.3218394" lon="-5.4812976">
<ele>527.32</ele>
<time>2020-05-25T10:45:10.000Z</time>
</trkpt>
<trkpt lat="43.3216621" lon="-5.4813483">
<ele>518.60</ele>
<time>2020-05-25T10:45:39.000Z</time>
</trkpt>
<trkpt lat="43.3214819" lon="-5.4812968">
<ele>511.38</ele>
<time>2020-05-25T10:46:17.000Z</time>
</trkpt>
<trkpt lat="43.3213008" lon="-5.4813667">
<ele>506.59</ele>
<time>2020-05-25T10:46:47.000Z</time>
</trkpt>
<trkpt lat="43.3211367" lon="-5.4812575">
<ele>496.59</ele>
<time>2020-05-25T10:47:46.000Z</time>
</trkpt>
<trkpt lat="43.3209579" lon="-5.4812012">
<ele>495.29</ele>
<time>2020-05-25T10:48:09.000Z</time>
</trkpt>
<trkpt lat="43.3207790" lon="-5.4812328">
<ele>486.02</ele>
<time>2020-05-25T10:49:50.000Z</time>
</trkpt>
<trkpt lat="43.3206292" lon="-5.4810920">
<ele>488.05</ele>
<time>2020-05-25T10:50:14.000Z</time>
</trkpt>
<trkpt lat="43.3207613" lon="-5.4809194">
<ele>475.64</ele>
<time>2020-05-25T10:51:47.000Z</time>
</trkpt>
<trkpt lat="43.3209270" lon="-5.4807896">
<ele>467.35</ele>
<time>2020-05-25T10:52:26.000Z</time>
</trkpt>
<trkpt lat="43.3207533" lon="-5.4807031">
<ele>466.59</ele>
<time>2020-05-25T10:53:19.000Z</time>
</trkpt>
<trkpt lat="43.3205943" lon="-5.4805827">
<ele>455.05</ele>
<time>2020-05-25T10:55:27.000Z</time>
</trkpt>
<trkpt lat="43.3204568" lon="-5.4804006">
<ele>454.29</ele>
<time>2020-05-25T10:59:51.000Z</time>
</trkpt>
<trkpt lat="43.3202763" lon="-5.4804230">
<ele>453.36</ele>
<time>2020-05-25T11:00:19.000Z</time>
</trkpt>
<trkpt lat="43.3200866" lon="-5.4803844">
<ele>447.30</ele>
<time>2020-05-25T11:01:17.000Z</time>
</trkpt>
<trkpt lat="43.3202087" lon="-5.4802018">
<ele>442.29</ele>
<time>2020-05-25T11:07:02.000Z</time>
</trkpt>
<trkpt lat="43.3202643" lon="-5.4799594">
<ele>448.28</ele>
<time>2020-05-25T11:08:28.000Z</time>
</trkpt>
<trkpt lat="43.3203616" lon="-5.4797451">
<ele>451.26</ele>
<time>2020-05-25T11:09:01.000Z</time>
</trkpt>
<trkpt lat="43.3205476" lon="-5.4797508">
<ele>455.50</ele>
<time>2020-05-25T11:09:31.000Z</time>
</trkpt>
<trkpt lat="43.3205016" lon="-5.4795102">
<ele>449.60</ele>
<time>2020-05-25T11:10:15.000Z</time>
</trkpt>
<trkpt lat="43.3206391" lon="-5.4793457">
<ele>437.29</ele>
<time>2020-05-25T11:15:55.000Z</time>
</trkpt>
<trkpt lat="43.3208177" lon="-5.4793913">
<ele>440.29</ele>
<time>2020-05-25T11:16:25.000Z</time>
</trkpt>
<trkpt lat="43.3209488" lon="-5.4792201">
<ele>432.32</ele>
<time>2020-05-25T11:17:58.000Z</time>
</trkpt>
<trkpt lat="43.3209912" lon="-5.4789651">
<ele>431.35</ele>
<time>2020-05-25T11:19:20.000Z</time>
</trkpt>
<trkpt lat="43.3211503" lon="-5.4788370">
<ele>432.17</ele>
<time>2020-05-25T11:19:35.000Z</time>
</trkpt>
<trkpt lat="43.3213301" lon="-5.4788779">
<ele>425.99</ele>
<time>2020-05-25T11:20:07.000Z</time>
</trkpt>
<trkpt lat="43.3214276" lon="-5.4786686">
<ele>427.99</ele>
<time>2020-05-25T11:20:58.000Z</time>
</trkpt>
<trkpt lat="43.3216081" lon="-5.4786099">
<ele>418.31</ele>
<time>2020-05-25T11:25:15.000Z</time>
</trkpt>
<trkpt lat="43.3217881" lon="-5.4786048">
<ele>414.39</ele>
<time>2020-05-25T11:26:26.000Z</time>
</trkpt>
<trkpt lat="43.3218779" lon="-5.4783848">
<ele>418.20</ele>
<time>2020-05-25T11:29:20.000Z</time>
</trkpt>
<trkpt lat="43.3220656" lon="-5.4784009">
<ele>420.99</ele>
<time>2020-05-25T11:29:53.000Z</time>
</trkpt>
<trkpt lat="43.3222446" lon="-5.4784390">
<ele>421.28</ele>
<time>2020-05-25T11:30:19.000Z</time>
</trkpt>
<trkpt lat="43.3224249" lon="-5.4784314">
<ele>423.05</ele>
<time>2020-05-25T11:30:35.000Z</time>
</trkpt>
<trkpt lat="43.3225719" lon="-5.4785770">
<ele>419.59</ele>
<time>2020-05-25T11:30:58.000Z</time>
</trkpt>
<trkpt lat="43.3227432" lon="-5.4786873">
<ele>420.58</ele>
<time>2020-05-25T11:31:22.000Z</time>
</trkpt>
<trkpt lat="43.3228861" lon="-5.4788401">
<ele>420.26</ele>
<time>2020-05-25T11:31:59.000Z</time>
</trkpt>
<trkpt lat="43.3230691" lon="-5.4788665">
<ele>428.29</ele>
<time>2020-05-25T11:32:38.000Z</time>
</trkpt>
<trkpt lat="43.3232584" lon="-5.4788882">
<ele>426.59</ele>
<time>2020-05-25T11:32:59.000Z</time>
</trkpt>
<trkpt lat="43.3234381" lon="-5.4789211">
<ele>431.19</ele>
<time>2020-05-25T11:33:20.000Z</time>
</trkpt>
<trkpt lat="43.3236248" lon="-5.4789634">
<ele>426.62</ele>
<time>2020-05-25T11:33:54.000Z</time>
</trkpt>
<trkpt lat="43.3237948" lon="-5.4790742">
<ele>423.29</ele>
<time>2020-05-25T11:34:16.000Z</time>
</trkpt>
<trkpt lat="43.3239503" lon="-5.4791999">
<ele>428.25</ele>
<time>2020-05-25T11:34:36.000Z</time>
</trkpt>
<trkpt lat="43.3241184" lon="-5.4792880">
<ele>429.21</ele>
<time>2020-05-25T11:35:00.000Z</time>
</trkpt>
<trkpt lat="43.3243091" lon="-5.4792447">
<ele>430.56</ele>
<time>2020-05-25T11:35:40.000Z</time>
</trkpt>
<trkpt lat="43.3244913" lon="-5.4791949">
<ele>431.30</ele>
<time>2020-05-25T11:36:04.000Z</time>
</trkpt>
<trkpt lat="43.3246714" lon="-5.4791316">
<ele>425.32</ele>
<time>2020-05-25T11:36:20.000Z</time>
</trkpt>
<trkpt lat="43.3248454" lon="-5.4790468">
<ele>423.29</ele>
<time>2020-05-25T11:36:37.000Z</time>
</trkpt>
<trkpt lat="43.3250096" lon="-5.4791549">
<ele>424.99</ele>
<time>2020-05-25T11:36:53.000Z</time>
</trkpt>
<trkpt lat="43.3251823" lon="-5.4792546">
<ele>426.90</ele>
<time>2020-05-25T11:37:14.000Z</time>
</trkpt>
<trkpt lat="43.3253755" lon="-5.4792293">
<ele>427.62</ele>
<time>2020-05-25T11:37:54.000Z</time>
</trkpt>
<trkpt lat="43.3255313" lon="-5.4790999">
<ele>422.39</ele>
<time>2020-05-25T11:38:10.000Z</time>
</trkpt>
<trkpt lat="43.3256220" lon="-5.4788860">
<ele>421.96</ele>
<time>2020-05-25T11:38:31.000Z</time>
</trkpt>
<trkpt lat="43.3258082" lon="-5.4788454">
<ele>420.08</ele>
<time>2020-05-25T11:38:56.000Z</time>
</trkpt>
<trkpt lat="43.3259733" lon="-5.4789470">
<ele>421.29</ele>
<time>2020-05-25T11:39:17.000Z</time>
</trkpt>
<trkpt lat="43.3261259" lon="-5.4790854">
<ele>419.29</ele>
<time>2020-05-25T11:39:35.000Z</time>
</trkpt>
<trkpt lat="43.3262636" lon="-5.4792493">
<ele>419.20</ele>
<time>2020-05-25T11:40:09.000Z</time>
</trkpt>
<trkpt lat="43.3264099" lon="-5.4794023">
<ele>423.19</ele>
<time>2020-05-25T11:40:32.000Z</time>
</trkpt>
<trkpt lat="43.3265882" lon="-5.4794521">
<ele>423.23</ele>
<time>2020-05-25T11:40:49.000Z</time>
</trkpt>
<trkpt lat="43.3266679" lon="-5.4792223">
<ele>421.29</ele>
<time>2020-05-25T11:41:23.000Z</time>
</trkpt>
<trkpt lat="43.3267500" lon="-5.4789991">
<ele>410.29</ele>
<time>2020-05-25T11:42:34.000Z</time>
</trkpt>
<trkpt lat="43.3268668" lon="-5.4791946">
<ele>409.38</ele>
<time>2020-05-25T11:43:05.000Z</time>
</trkpt>
<trkpt lat="43.3270429" lon="-5.4792628">
<ele>406.96</ele>
<time>2020-05-25T11:43:32.000Z</time>
</trkpt>
<trkpt lat="43.3272227" lon="-5.4792838">
<ele>407.29</ele>
<time>2020-05-25T11:43:54.000Z</time>
</trkpt>
<trkpt lat="43.3274091" lon="-5.4792214">
<ele>408.17</ele>
<time>2020-05-25T11:44:15.000Z</time>
</trkpt>
<trkpt lat="43.3275873" lon="-5.4791436">
<ele>403.60</ele>
<time>2020-05-25T11:44:35.000Z</time>
</trkpt>
<trkpt lat="43.3277689" lon="-5.4790673">
<ele>395.59</ele>
<time>2020-05-25T11:46:01.000Z</time>
</trkpt>
<trkpt lat="43.3279491" lon="-5.4790171">
<ele>393.39</ele>
<time>2020-05-25T11:46:18.000Z</time>
</trkpt>
<trkpt lat="43.3281286" lon="-5.4790519">
<ele>393.98</ele>
<time>2020-05-25T11:46:43.000Z</time>
</trkpt>
<trkpt lat="43.3283136" lon="-5.4790826">
<ele>392.56</ele>
<time>2020-05-25T11:47:06.000Z</time>
</trkpt>
<trkpt lat="43.3284966" lon="-5.4790580">
<ele>392.02</ele>
<time>2020-05-25T11:47:26.000Z</time>
</trkpt>
<trkpt lat="43.3286837" lon="-5.4789720">
<ele>391.29</ele>
<time>2020-05-25T11:47:44.000Z</time>
</trkpt>
<trkpt lat="43.3288643" lon="-5.4790530">
<ele>390.08</ele>
<time>2020-05-25T11:48:08.000Z</time>
</trkpt>
<trkpt lat="43.3290512" lon="-5.4790592">
<ele>388.31</ele>
<time>2020-05-25T11:48:27.000Z</time>
</trkpt>
<trkpt lat="43.3292422" lon="-5.4790768">
<ele>385.60</ele>
<time>2020-05-25T11:48:47.000Z</time>
</trkpt>
<trkpt lat="43.3294090" lon="-5.4789830">
<ele>380.51</ele>
<time>2020-05-25T11:49:32.000Z</time>
</trkpt>
<trkpt lat="43.3295978" lon="-5.4790141">
<ele>380.38</ele>
<time>2020-05-25T11:49:56.000Z</time>
</trkpt>
<trkpt lat="43.3297808" lon="-5.4790435">
<ele>381.27</ele>
<time>2020-05-25T11:50:13.000Z</time>
</trkpt>
<trkpt lat="43.3299556" lon="-5.4791109">
<ele>383.50</ele>
<time>2020-05-25T11:50:34.000Z</time>
</trkpt>
<trkpt lat="43.3301402" lon="-5.4790897">
<ele>383.35</ele>
<time>2020-05-25T11:50:53.000Z</time>
</trkpt>
<trkpt lat="43.3303044" lon="-5.4789723">
<ele>381.99</ele>
<time>2020-05-25T11:51:07.000Z</time>
</trkpt>
<trkpt lat="43.3304885" lon="-5.4789877">
<ele>381.30</ele>
<time>2020-05-25T11:52:17.000Z</time>
</trkpt>
<trkpt lat="43.3306524" lon="-5.4790922">
<ele>379.28</ele>
<time>2020-05-25T11:52:39.000Z</time>
</trkpt>
<trkpt lat="43.3308408" lon="-5.4791328">
<ele>376.32</ele>
<time>2020-05-25T11:53:01.000Z</time>
</trkpt>
<trkpt lat="43.3310285" lon="-5.4791506">
<ele>378.20</ele>
<time>2020-05-25T11:53:35.000Z</time>
</trkpt>
<trkpt lat="43.3311626" lon="-5.4793189">
<ele>373.41</ele>
<time>2020-05-25T11:53:58.000Z</time>
</trkpt>
<trkpt lat="43.3313268" lon="-5.4794392">
<ele>370.29</ele>
<time>2020-05-25T11:54:16.000Z</time>
</trkpt>
<trkpt lat="43.3315111" lon="-5.4794714">
<ele>374.21</ele>
<time>2020-05-25T11:54:40.000Z</time>
</trkpt>
<trkpt lat="43.3316879" lon="-5.4795288">
<ele>373.26</ele>
<time>2020-05-25T11:55:04.000Z</time>
</trkpt>
<trkpt lat="43.3318700" lon="-5.4795355">
<ele>375.99</ele>
<time>2020-05-25T11:55:20.000Z</time>
</trkpt>
<trkpt lat="43.3320609" lon="-5.4794998">
<ele>374.32</ele>
<time>2020-05-25T11:55:44.000Z</time>
</trkpt>
<trkpt lat="43.3322477" lon="-5.4795054">
<ele>372.29</ele>
<time>2020-05-25T11:56:03.000Z</time>
</trkpt>
<trkpt lat="43.3324279" lon="-5.4794903">
<ele>375.89</ele>
<time>2020-05-25T11:56:19.000Z</time>
</trkpt>
<trkpt lat="43.3326189" lon="-5.4794560">
<ele>375.61</ele>
<time>2020-05-25T11:56:59.000Z</time>
</trkpt>
<trkpt lat="43.3328048" lon="-5.4794870">
<ele>377.31</ele>
<time>2020-05-25T11:57:26.000Z</time>
</trkpt>
<trkpt lat="43.3329673" lon="-5.4793756">
<ele>379.49</ele>
<time>2020-05-25T11:57:42.000Z</time>
</trkpt>
<trkpt lat="43.3331508" lon="-5.4793217">
<ele>380.26</ele>
<time>2020-05-25T11:58:08.000Z</time>
</trkpt>
<trkpt lat="43.3333301" lon="-5.4793849">
<ele>365.29</ele>
<time>2020-05-25T11:59:34.000Z</time>
</trkpt>
<trkpt lat="43.3335125" lon="-5.4794316">
<ele>367.25</ele>
<time>2020-05-25T11:59:53.000Z</time>
</trkpt>
<trkpt lat="43.3336688" lon="-5.4795714">
<ele>368.32</ele>
<time>2020-05-25T12:00:17.000Z</time>
</trkpt>
<trkpt lat="43.3337764" lon="-5.4797743">
<ele>360.29</ele>
<time>2020-05-25T12:00:59.000Z</time>
</trkpt>
<trkpt lat="43.3339384" lon="-5.4798933">
<ele>358.38</ele>
<time>2020-05-25T12:01:16.000Z</time>
</trkpt>
<trkpt lat="43.3340425" lon="-5.4801033">
<ele>354.29</ele>
<time>2020-05-25T12:02:04.000Z</time>
</trkpt>
<trkpt lat="43.3341709" lon="-5.4802923">
<ele>357.20</ele>
<time>2020-05-25T12:02:28.000Z</time>
</trkpt>
<trkpt lat="43.3343510" lon="-5.4802955">
<ele>360.28</ele>
<time>2020-05-25T12:02:46.000Z</time>
</trkpt>
<trkpt lat="43.3345393" lon="-5.4802480">
<ele>362.29</ele>
<time>2020-05-25T12:03:04.000Z</time>
</trkpt>
<trkpt lat="43.3347176" lon="-5.4802125">
<ele>364.28</ele>
<time>2020-05-25T12:03:19.000Z</time>
</trkpt>
<trkpt lat="43.3348872" lon="-5.4801173">
<ele>364.29</ele>
<time>2020-05-25T12:03:38.000Z</time>
</trkpt>
<trkpt lat="43.3350721" lon="-5.4800777">
<ele>365.26</ele>
<time>2020-05-25T12:03:58.000Z</time>
</trkpt>
<trkpt lat="43.3352518" lon="-5.4801377">
<ele>366.35</ele>
<time>2020-05-25T12:04:19.000Z</time>
</trkpt>
<trkpt lat="43.3354427" lon="-5.4801166">
<ele>367.26</ele>
<time>2020-05-25T12:04:34.000Z</time>
</trkpt>
<trkpt lat="43.3356192" lon="-5.4801897">
<ele>367.08</ele>
<time>2020-05-25T12:05:02.000Z</time>
</trkpt>
<trkpt lat="43.3358012" lon="-5.4801362">
<ele>366.59</ele>
<time>2020-05-25T12:05:21.000Z</time>
</trkpt>
<trkpt lat="43.3359843" lon="-5.4801559">
<ele>369.35</ele>
<time>2020-05-25T12:05:38.000Z</time>
</trkpt>
<trkpt lat="43.3361707" lon="-5.4801005">
<ele>369.30</ele>
<time>2020-05-25T12:05:57.000Z</time>
</trkpt>
<trkpt lat="43.3363558" lon="-5.4800580">
<ele>369.29</ele>
<time>2020-05-25T12:06:13.000Z</time>
</trkpt>
<trkpt lat="43.3365404" lon="-5.4800821">
<ele>371.06</ele>
<time>2020-05-25T12:06:30.000Z</time>
</trkpt>
<trkpt lat="43.3367297" lon="-5.4800686">
<ele>371.29</ele>
<time>2020-05-25T12:06:48.000Z</time>
</trkpt>
<trkpt lat="43.3369175" lon="-5.4800828">
<ele>372.36</ele>
<time>2020-05-25T12:07:06.000Z</time>
</trkpt>
<trkpt lat="43.3370672" lon="-5.4799279">
<ele>374.00</ele>
<time>2020-05-25T12:07:43.000Z</time>
</trkpt>
<trkpt lat="43.3372472" lon="-5.4799355">
<ele>376.01</ele>
<time>2020-05-25T12:09:28.000Z</time>
</trkpt>
<trkpt lat="43.3374314" lon="-5.4799857">
<ele>376.30</ele>
<time>2020-05-25T12:09:53.000Z</time>
</trkpt>
<trkpt lat="43.3376183" lon="-5.4799999">
<ele>371.29</ele>
<time>2020-05-25T12:10:14.000Z</time>
</trkpt>
<trkpt lat="43.3377591" lon="-5.4801609">
<ele>371.38</ele>
<time>2020-05-25T12:10:43.000Z</time>
</trkpt>
<trkpt lat="43.3379129" lon="-5.4802964">
<ele>371.99</ele>
<time>2020-05-25T12:11:32.000Z</time>
</trkpt>
<trkpt lat="43.3380947" lon="-5.4803097">
<ele>371.29</ele>
<time>2020-05-25T12:11:48.000Z</time>
</trkpt>
<trkpt lat="43.3382789" lon="-5.4802940">
<ele>372.28</ele>
<time>2020-05-25T12:12:05.000Z</time>
</trkpt>
<trkpt lat="43.3384575" lon="-5.4803232">
<ele>371.20</ele>
<time>2020-05-25T12:12:26.000Z</time>
</trkpt>
<trkpt lat="43.3386246" lon="-5.4802100">
<ele>368.00</ele>
<time>2020-05-25T12:12:44.000Z</time>
</trkpt>
<trkpt lat="43.3387584" lon="-5.4800366">
<ele>371.22</ele>
<time>2020-05-25T12:13:06.000Z</time>
</trkpt>
<trkpt lat="43.3389401" lon="-5.4800426">
<ele>368.59</ele>
<time>2020-05-25T12:13:24.000Z</time>
</trkpt>
<trkpt lat="43.3391250" lon="-5.4800678">
<ele>369.26</ele>
<time>2020-05-25T12:13:45.000Z</time>
</trkpt>
<trkpt lat="43.3393121" lon="-5.4801416">
<ele>371.99</ele>
<time>2020-05-25T12:14:15.000Z</time>
</trkpt>
<trkpt lat="43.3394498" lon="-5.4803076">
<ele>371.08</ele>
<time>2020-05-25T12:16:55.000Z</time>
</trkpt>
<trkpt lat="43.3395457" lon="-5.4805248">
<ele>369.30</ele>
<time>2020-05-25T12:17:18.000Z</time>
</trkpt>
<trkpt lat="43.3396978" lon="-5.4806635">
<ele>367.29</ele>
<time>2020-05-25T12:17:35.000Z</time>
</trkpt>
<trkpt lat="43.3398799" lon="-5.4806989">
<ele>365.30</ele>
<time>2020-05-25T12:18:09.000Z</time>
</trkpt>
<trkpt lat="43.3400178" lon="-5.4808597">
<ele>364.23</ele>
<time>2020-05-25T12:19:01.000Z</time>
</trkpt>
<trkpt lat="43.3400046" lon="-5.4811069">
<ele>362.29</ele>
<time>2020-05-25T12:19:20.000Z</time>
</trkpt>
<trkpt lat="43.3399910" lon="-5.4813610">
<ele>362.21</ele>
<time>2020-05-25T12:19:43.000Z</time>
</trkpt>
<trkpt lat="43.3399820" lon="-5.4816184">
<ele>362.30</ele>
<time>2020-05-25T12:20:00.000Z</time>
</trkpt>
<trkpt lat="43.3399619" lon="-5.4818759">
<ele>361.29</ele>
<time>2020-05-25T12:20:27.000Z</time>
</trkpt>
<trkpt lat="43.3400108" lon="-5.4821247">
<ele>360.29</ele>
<time>2020-05-25T12:20:46.000Z</time>
</trkpt>
<trkpt lat="43.3400755" lon="-5.4823627">
<ele>356.30</ele>
<time>2020-05-25T12:21:47.000Z</time>
</trkpt>
<trkpt lat="43.3402104" lon="-5.4825377">
<ele>352.60</ele>
<time>2020-05-25T12:22:07.000Z</time>
</trkpt>
<trkpt lat="43.3403817" lon="-5.4826275">
<ele>349.40</ele>
<time>2020-05-25T12:22:31.000Z</time>
</trkpt>
<trkpt lat="43.3405566" lon="-5.4827083">
<ele>345.38</ele>
<time>2020-05-25T12:23:00.000Z</time>
</trkpt>
<trkpt lat="43.3406773" lon="-5.4829042">
<ele>343.30</ele>
<time>2020-05-25T12:23:19.000Z</time>
</trkpt>
<trkpt lat="43.3408179" lon="-5.4830844">
<ele>341.20</ele>
<time>2020-05-25T12:23:40.000Z</time>
</trkpt>
<trkpt lat="43.3409377" lon="-5.4832720">
<ele>340.27</ele>
<time>2020-05-25T12:24:00.000Z</time>
</trkpt>
<trkpt lat="43.3410723" lon="-5.4834504">
<ele>332.53</ele>
<time>2020-05-25T12:24:40.000Z</time>
</trkpt>
<trkpt lat="43.3412496" lon="-5.4835021">
<ele>329.29</ele>
<time>2020-05-25T12:25:16.000Z</time>
</trkpt>
<trkpt lat="43.3414271" lon="-5.4834280">
<ele>326.99</ele>
<time>2020-05-25T12:25:42.000Z</time>
</trkpt>
<trkpt lat="43.3416072" lon="-5.4834616">
<ele>322.30</ele>
<time>2020-05-25T12:26:05.000Z</time>
</trkpt>
<trkpt lat="43.3417411" lon="-5.4836276">
<ele>314.32</ele>
<time>2020-05-25T12:26:46.000Z</time>
</trkpt>
<trkpt lat="43.3419235" lon="-5.4836979">
<ele>310.69</ele>
<time>2020-05-25T12:27:54.000Z</time>
</trkpt>
<trkpt lat="43.3421033" lon="-5.4837471">
<ele>312.30</ele>
<time>2020-05-25T12:28:43.000Z</time>
</trkpt>
<trkpt lat="43.3422853" lon="-5.4837224">
<ele>308.38</ele>
<time>2020-05-25T12:29:58.000Z</time>
</trkpt>
<trkpt lat="43.3424331" lon="-5.4835787">
<ele>302.30</ele>
<time>2020-05-25T12:30:28.000Z</time>
</trkpt>
<trkpt lat="43.3425995" lon="-5.4834797">
<ele>301.23</ele>
<time>2020-05-25T12:30:45.000Z</time>
</trkpt>
<trkpt lat="43.3427806" lon="-5.4834328">
<ele>300.29</ele>
<time>2020-05-25T12:31:02.000Z</time>
</trkpt>
<trkpt lat="43.3429607" lon="-5.4834421">
<ele>298.19</ele>
<time>2020-05-25T12:31:22.000Z</time>
</trkpt>
<trkpt lat="43.3431428" lon="-5.4833794">
<ele>298.27</ele>
<time>2020-05-25T12:31:41.000Z</time>
</trkpt>
<trkpt lat="43.3433181" lon="-5.4833224">
<ele>295.29</ele>
<time>2020-05-25T12:32:30.000Z</time>
</trkpt>
<trkpt lat="43.3435030" lon="-5.4832999">
<ele>294.29</ele>
<time>2020-05-25T12:33:11.000Z</time>
</trkpt>
<trkpt lat="43.3436748" lon="-5.4833930">
<ele>291.29</ele>
<time>2020-05-25T12:33:33.000Z</time>
</trkpt>
<trkpt lat="43.3438247" lon="-5.4835364">
<ele>287.23</ele>
<time>2020-05-25T12:34:16.000Z</time>
</trkpt>
<trkpt lat="43.3438743" lon="-5.4837854">
<ele>285.51</ele>
<time>2020-05-25T12:34:35.000Z</time>
</trkpt>
<trkpt lat="43.3439677" lon="-5.4840031">
<ele>284.58</ele>
<time>2020-05-25T12:34:58.000Z</time>
</trkpt>
<trkpt lat="43.3441007" lon="-5.4841833">
<ele>280.29</ele>
<time>2020-05-25T12:35:34.000Z</time>
</trkpt>
<trkpt lat="43.3441543" lon="-5.4844319">
<ele>278.59</ele>
<time>2020-05-25T12:35:52.000Z</time>
</trkpt>
<trkpt lat="43.3442048" lon="-5.4846745">
<ele>272.38</ele>
<time>2020-05-25T12:36:20.000Z</time>
</trkpt>
<trkpt lat="43.3443523" lon="-5.4848263">
<ele>267.69</ele>
<time>2020-05-25T12:36:41.000Z</time>
</trkpt>
<trkpt lat="43.3444998" lon="-5.4849735">
<ele>265.25</ele>
<time>2020-05-25T12:37:09.000Z</time>
</trkpt>
<trkpt lat="43.3446788" lon="-5.4850237">
<ele>256.59</ele>
<time>2020-05-25T12:38:37.000Z</time>
</trkpt>
<trkpt lat="43.3448236" lon="-5.4848745">
<ele>253.38</ele>
<time>2020-05-25T12:39:31.000Z</time>
</trkpt>
<trkpt lat="43.3449004" lon="-5.4846444">
<ele>251.29</ele>
<time>2020-05-25T12:41:11.000Z</time>
</trkpt>
<trkpt lat="43.3449859" lon="-5.4844249">
<ele>245.38</ele>
<time>2020-05-25T12:42:11.000Z</time>
</trkpt>
<trkpt lat="43.3451070" lon="-5.4842401">
<ele>243.39</ele>
<time>2020-05-25T12:43:35.000Z</time>
</trkpt>
<trkpt lat="43.3452332" lon="-5.4840577">
<ele>240.08</ele>
<time>2020-05-25T12:43:55.000Z</time>
</trkpt>
<trkpt lat="43.3453695" lon="-5.4838826">
<ele>240.20</ele>
<time>2020-05-25T12:44:24.000Z</time>
</trkpt>
<trkpt lat="43.3455551" lon="-5.4838451">
<ele>243.28</ele>
<time>2020-05-25T12:44:41.000Z</time>
</trkpt>
</trkseg>
</trk>
</gpx>
